MMTJ/TIJ METAR and TAF weather

Enter ICAO airport designator
Station Type Date Time Source
MMTJ METAR 2021/08/04 19:48 UTC NOAA

MMTJ 041948Z 25008KT 8SM SKC 25/18 A2993 RMK HZY DSNT CU E


Station Type Date Time Source
MMTJ Decoded METAR 2021/08/04 19:48 UTC NOAA

Tijuana International Airport , Mexico (MMTJ) 32-33N 116-58W
Aug 04, 2021 - 03:48 PM EDT / 2021.08.04 1948 UTC
Wind: from the WSW (250 degrees) at 9 MPH (8 KT):0
Visibility: 8 mile(s):0
Sky conditions: clear
Temperature: 77 F (25 C)
Dew Point: 64 F (18 C)
Relative Humidity: 65%
Pressure (altimeter): 29.93 in. Hg (1013 hPa)
ob: MMTJ 041948Z 25008KT 8SM SKC 25/18 A2993 RMK HZY DSNT CU E
cycle: 20

Station Type Date Time Source
MMTJ TAF 2021/08/04 18:45 UTC NOAA

TAF TAF MMTJ 041641Z 0418/0524 30008KT 6SM HZ SKC TX28/0420Z TN18/0506Z
BECMG 0419/0420 P6SM
FM050300 00000KT 6SM HZ SKC
BECMG 0506/0507 3SM BR BKN004
FM051100 00000KT 2SM BR OVC003
FM051630 00000KT 3SM BR BKN008
FM051730 26006KT 6SM HZ SKC
FM051900 26010KT P6SM SKC

Example: see airport list